createdAt,value
2022-11-24T00:01:29.667Z,5.89
2022-11-24T00:03:58.896Z,5.95
2022-11-24T00:06:25.880Z,5.96
2022-11-24T00:08:53.202Z,5.96
2022-11-24T00:11:22.409Z,5.98
2022-11-24T00:13:49.329Z,5.98
2022-11-24T00:16:18.195Z,6.02
2022-11-24T00:18:46.634Z,6.01
2022-11-24T00:21:14.399Z,5.95
2022-11-24T00:23:41.132Z,5.99
2022-11-24T00:26:11.599Z,5.96
2022-11-24T00:28:39.475Z,6.03
2022-11-24T00:31:40.001Z,6.02
2022-11-24T00:34:15.040Z,5.97
2022-11-24T00:36:42.057Z,5.97
2022-11-24T00:39:12.140Z,6.03
2022-11-24T00:41:39.433Z,6.08
2022-11-24T00:44:06.047Z,6.06
2022-11-24T00:46:33.236Z,6.17
2022-11-24T00:49:02.540Z,6.18
2022-11-24T00:51:30.338Z,6.24
2022-11-24T00:53:58.570Z,6.24
2022-11-24T00:56:26.510Z,6.28
2022-11-24T00:58:53.696Z,6.32
2022-11-24T01:01:23.520Z,6.30
2022-11-24T01:03:50.884Z,6.32
2022-11-24T01:06:20.787Z,6.33
2022-11-24T01:08:48.410Z,6.32
2022-11-24T01:11:18.019Z,6.37
2022-11-24T01:13:47.018Z,6.34
2022-11-24T01:16:20.524Z,6.27
2022-11-24T01:18:47.877Z,6.19
2022-11-24T01:21:15.714Z,6.13
2022-11-24T01:23:42.572Z,6.10
2022-11-24T01:26:12.459Z,6.13
2022-11-24T01:28:44.815Z,6.06
2022-11-24T01:31:14.318Z,6.13
2022-11-24T01:33:40.967Z,6.02
2022-11-24T01:36:07.629Z,6.07
2022-11-24T01:38:34.357Z,6.09
2022-11-24T01:41:10.036Z,5.97
2022-11-24T01:43:36.923Z,5.99
2022-11-24T01:46:27.776Z,5.90
2022-11-24T01:49:15.134Z,5.92
2022-11-24T01:52:05.615Z,6.01
2022-11-24T01:54:36.186Z,6.12
2022-11-24T01:57:40.357Z,6.20
2022-11-24T02:00:10.525Z,6.17
2022-11-24T02:02:37.166Z,6.23
2022-11-24T02:05:12.080Z,6.18
2022-11-24T02:07:38.646Z,6.22
2022-11-24T02:10:16.730Z,6.26
2022-11-24T02:12:48.787Z,6.14
2022-11-24T02:15:16.602Z,6.17
2022-11-24T02:17:43.723Z,6.09
2022-11-24T02:20:11.885Z,6.17
2022-11-24T02:22:44.546Z,6.15
2022-11-24T02:25:13.872Z,6.11
2022-11-24T02:27:42.802Z,6.18
2022-11-24T02:30:09.684Z,6.24
2022-11-24T02:32:40.256Z,6.25
2022-11-24T02:35:08.762Z,6.33
2022-11-24T02:37:35.433Z,6.44
2022-11-24T02:40:02.031Z,6.46
2022-11-24T02:42:33.052Z,6.50
2022-11-24T02:45:01.075Z,6.56
2022-11-24T02:47:28.093Z,6.67
2022-11-24T02:49:54.618Z,6.62
2022-11-24T02:52:21.074Z,6.60
2022-11-24T02:54:47.590Z,6.60
2022-11-24T02:57:15.203Z,6.64
2022-11-24T02:59:41.666Z,6.61
2022-11-24T03:02:08.246Z,6.54
2022-11-24T03:04:34.968Z,6.57
2022-11-24T03:07:01.785Z,6.53
2022-11-24T03:09:28.404Z,6.60
2022-11-24T03:11:54.841Z,6.62
2022-11-24T03:14:21.294Z,6.64
2022-11-24T03:16:47.757Z,6.57
2022-11-24T03:19:14.174Z,6.63
2022-11-24T03:21:40.809Z,6.61
2022-11-24T03:24:07.584Z,6.56
2022-11-24T03:26:34.596Z,6.54
2022-11-24T03:29:01.279Z,6.50
2022-11-24T03:31:27.924Z,6.52
2022-11-24T03:33:54.617Z,6.43
2022-11-24T03:36:21.350Z,6.47
2022-11-24T03:38:48.021Z,6.45
2022-11-24T03:41:14.500Z,6.56
2022-11-24T03:43:44.095Z,6.49
2022-11-24T03:46:11.926Z,6.51
2022-11-24T03:48:38.860Z,6.49
2022-11-24T03:51:05.662Z,6.56
2022-11-24T03:53:33.567Z,6.60
2022-11-24T03:56:00.762Z,6.62
2022-11-24T03:58:28.135Z,6.56
2022-11-24T04:00:55.916Z,6.63
2022-11-24T04:03:23.400Z,6.59
2022-11-24T04:05:50.405Z,6.60
2022-11-24T04:08:17.569Z,6.59
2022-11-24T04:10:44.025Z,6.60
2022-11-24T04:13:13.625Z,6.70
2022-11-24T04:15:41.065Z,6.53
2022-11-24T04:18:09.648Z,6.53
2022-11-24T04:20:37.125Z,6.51
2022-11-24T04:23:03.677Z,6.50
2022-11-24T04:25:30.397Z,6.49
2022-11-24T04:27:57.315Z,6.52
2022-11-24T04:30:25.966Z,6.60
2022-11-24T04:32:53.042Z,6.48
2022-11-24T04:35:20.133Z,6.53
2022-11-24T04:37:47.478Z,6.44
2022-11-24T04:40:14.594Z,6.56
2022-11-24T04:42:41.298Z,6.49
2022-11-24T04:45:08.151Z,6.48
2022-11-24T04:47:34.777Z,6.40
2022-11-24T04:50:01.160Z,6.44
2022-11-24T04:52:45.993Z,6.42
2022-11-24T04:55:12.852Z,6.38
2022-11-24T04:57:55.761Z,6.41
2022-11-24T05:00:22.260Z,6.37
2022-11-24T05:02:51.814Z,6.40
2022-11-24T05:05:18.398Z,6.42
2022-11-24T05:07:44.951Z,6.45
2022-11-24T05:10:30.011Z,6.45
2022-11-24T05:12:59.489Z,6.46
2022-11-24T05:15:26.480Z,6.52
2022-11-24T05:17:53.467Z,6.55
2022-11-24T05:20:19.973Z,6.63
2022-11-24T05:22:46.511Z,6.63
2022-11-24T05:25:14.198Z,6.70
2022-11-24T05:27:40.924Z,6.78
2022-11-24T05:30:08.068Z,6.83
2022-11-24T05:32:34.992Z,6.89
2022-11-24T05:35:04.414Z,6.86
2022-11-24T05:37:31.272Z,6.94
2022-11-24T05:39:57.768Z,6.98
2022-11-24T05:42:47.313Z,6.94
2022-11-24T05:45:20.707Z,6.96
2022-11-24T05:47:48.528Z,6.97
2022-11-24T05:50:16.923Z,6.97
2022-11-24T05:52:43.406Z,7.04
2022-11-24T05:55:10.791Z,7.10
2022-11-24T05:57:37.290Z,7.06
2022-11-24T06:00:05.622Z,7.08
2022-11-24T06:02:32.676Z,7.07
2022-11-24T06:04:59.213Z,7.11
2022-11-24T06:07:25.690Z,7.10
2022-11-24T06:09:52.370Z,7.11
2022-11-24T06:12:18.915Z,7.02
2022-11-24T06:14:45.470Z,7.06
2022-11-24T06:17:12.447Z,7.08
2022-11-24T06:19:42.015Z,7.12
2022-11-24T06:22:09.009Z,7.10
2022-11-24T06:24:35.704Z,7.04
2022-11-24T06:27:02.553Z,7.10
2022-11-24T06:29:28.995Z,7.11
2022-11-24T06:31:55.725Z,7.19
2022-11-24T06:34:22.257Z,7.18
2022-11-24T06:36:48.829Z,7.25
2022-11-24T06:39:15.366Z,7.24
2022-11-24T06:41:41.915Z,7.24
2022-11-24T06:44:08.406Z,7.22
2022-11-24T06:46:34.982Z,7.18
2022-11-24T06:49:02.291Z,7.15
2022-11-24T06:51:28.943Z,7.17
2022-11-24T06:53:55.498Z,7.19
2022-11-24T06:56:22.683Z,7.14
2022-11-24T06:58:51.640Z,7.08
2022-11-24T07:01:25.697Z,7.09
2022-11-24T07:03:53.363Z,7.11
2022-11-24T07:06:21.434Z,7.04
2022-11-24T07:08:48.503Z,6.98
2022-11-24T07:11:18.605Z,6.94
2022-11-24T07:13:45.950Z,6.92
2022-11-24T07:16:22.632Z,6.93
2022-11-24T07:18:51.218Z,6.93
2022-11-24T07:21:19.647Z,6.91
2022-11-24T07:23:53.930Z,6.97
2022-11-24T07:26:21.461Z,6.93
2022-11-24T07:28:47.899Z,6.96
2022-11-24T07:31:24.880Z,6.99
2022-11-24T07:33:53.130Z,7.10
2022-11-24T07:36:21.229Z,7.04
2022-11-24T07:38:47.926Z,7.03
2022-11-24T07:41:16.381Z,7.10
2022-11-24T07:43:42.893Z,7.06
2022-11-24T07:46:12.513Z,7.06
2022-11-24T07:48:39.465Z,7.10
2022-11-24T07:51:06.888Z,7.18
2022-11-24T07:53:36.947Z,7.29
2022-11-24T07:56:05.431Z,7.20
2022-11-24T07:58:34.851Z,7.38
2022-11-24T08:01:16.637Z,7.35
2022-11-24T08:03:43.492Z,7.37
2022-11-24T08:06:31.728Z,7.35
2022-11-24T08:08:57.326Z,7.44
2022-11-24T08:11:25.507Z,7.42
2022-11-24T08:13:51.900Z,7.35
2022-11-24T08:16:19.750Z,7.38
2022-11-24T08:18:51.279Z,7.37
2022-11-24T08:21:17.875Z,7.38
2022-11-24T08:23:44.310Z,7.42
2022-11-24T08:26:17.867Z,7.47
2022-11-24T08:28:45.481Z,7.48
2022-11-24T08:31:18.572Z,7.61
2022-11-24T08:33:48.401Z,7.70
2022-11-24T08:36:17.556Z,7.77
2022-11-24T08:38:48.930Z,7.77
2022-11-24T08:41:17.239Z,7.92
2022-11-24T08:43:44.145Z,7.92
2022-11-24T08:46:13.190Z,8.03
2022-11-24T08:48:40.086Z,7.95
2022-11-24T08:51:12.682Z,8.01
2022-11-24T08:53:39.963Z,7.95
2022-11-24T08:56:07.766Z,8.04
2022-11-24T08:58:36.316Z,8.04
2022-11-24T09:01:14.077Z,8.13
2022-11-24T09:03:48.534Z,8.13
2022-11-24T09:06:18.464Z,8.18
2022-11-24T09:08:45.035Z,8.15
2022-11-24T09:11:13.659Z,8.20
2022-11-24T09:13:40.467Z,8.12
2022-11-24T09:16:10.129Z,8.08
2022-11-24T09:18:37.102Z,8.20
2022-11-24T09:21:22.323Z,8.20
2022-11-24T09:23:50.726Z,8.18
2022-11-24T09:26:23.974Z,8.30
2022-11-24T09:28:54.345Z,8.29
2022-11-24T09:31:22.753Z,8.34
2022-11-24T09:33:49.342Z,8.34
2022-11-24T09:36:15.688Z,8.38
2022-11-24T09:38:43.386Z,8.41
2022-11-24T09:41:22.155Z,8.48
2022-11-24T09:44:20.099Z,8.48
2022-11-24T09:47:00.956Z,8.52
2022-11-24T09:49:53.216Z,8.45
2022-11-24T09:52:32.560Z,8.51
2022-11-24T09:55:03.019Z,8.49
2022-11-24T09:57:37.434Z,8.44
2022-11-24T10:00:14.255Z,8.49
2022-11-24T10:02:40.668Z,8.48
2022-11-24T10:05:07.834Z,8.48
2022-11-24T10:07:42.841Z,8.48
2022-11-24T10:10:24.178Z,8.49
2022-11-24T10:13:13.127Z,8.55
2022-11-24T10:15:53.375Z,8.51
2022-11-24T10:18:38.356Z,8.58
2022-11-24T10:21:24.865Z,8.69
2022-11-24T10:24:16.583Z,8.72
2022-11-24T10:26:54.737Z,8.75
2022-11-24T10:29:28.661Z,8.78
2022-11-24T10:31:56.687Z,8.83
2022-11-24T10:34:49.862Z,8.89
2022-11-24T10:37:42.224Z,8.96
2022-11-24T10:40:40.560Z,8.96
2022-11-24T10:43:00.771Z,9.09
2022-11-24T10:45:28.548Z,9.09
2022-11-24T10:47:55.076Z,9.16
2022-11-24T10:50:24.721Z,9.01
2022-11-24T10:53:19.138Z,8.99
2022-11-24T10:55:55.106Z,8.96
2022-11-24T10:58:37.268Z,8.96
2022-11-24T11:01:13.860Z,8.98
2022-11-24T11:03:58.298Z,8.91
2022-11-24T11:06:30.114Z,8.89
2022-11-24T11:09:09.192Z,8.91
2022-11-24T11:11:38.690Z,8.93
2022-11-24T11:14:07.128Z,8.93
2022-11-24T11:16:37.364Z,8.96
2022-11-24T11:19:33.026Z,9.09
2022-11-24T11:22:11.444Z,9.18
2022-11-24T11:24:40.071Z,9.38
2022-11-24T11:27:15.546Z,9.53
2022-11-24T11:35:15.023Z,10.04
2022-11-24T11:37:42.038Z,10.02
2022-11-24T11:40:16.099Z,10.11
2022-11-24T11:43:02.307Z,10.05
2022-11-24T11:45:37.700Z,10.08
2022-11-24T11:48:04.222Z,9.92
2022-11-24T11:54:16.473Z,9.97
2022-11-24T11:56:49.528Z,9.92
2022-11-24T11:59:55.014Z,9.81
2022-11-24T12:02:33.450Z,9.71
2022-11-24T12:05:05.171Z,9.75
2022-11-24T12:07:49.635Z,9.81
2022-11-24T12:10:40.919Z,9.72
2022-11-24T12:13:33.310Z,9.68
2022-11-24T12:16:13.439Z,9.76
2022-11-24T12:18:58.807Z,9.82
2022-11-24T12:21:34.331Z,9.89
2022-11-24T12:24:05.002Z,10.07
2022-11-24T12:26:56.651Z,10.32
2022-11-24T12:29:57.366Z,10.39
2022-11-24T12:32:48.876Z,10.42
2022-11-24T12:35:20.553Z,10.49
2022-11-24T12:38:12.893Z,10.45
2022-11-24T12:44:21.977Z,10.23
2022-11-24T12:47:04.016Z,10.10
2022-11-24T12:49:33.829Z,9.96
2022-11-24T12:52:16.641Z,9.94
2022-11-24T12:54:43.009Z,9.89
2022-11-24T12:57:12.489Z,9.88
2022-11-24T13:00:03.732Z,9.90
2022-11-24T13:02:49.145Z,9.93
2022-11-24T13:05:48.836Z,10.09
2022-11-24T13:08:16.024Z,10.09
2022-11-24T13:10:58.407Z,10.08
2022-11-24T13:13:50.143Z,10.12
2022-11-24T13:16:59.091Z,10.16
2022-11-24T13:19:17.443Z,10.14
2022-11-24T13:21:45.371Z,10.09
2022-11-24T13:24:18.929Z,10.05
2022-11-24T13:26:50.569Z,10.05
2022-11-24T13:29:34.051Z,10.02
2022-11-24T13:32:03.132Z,10.09
2022-11-24T13:34:39.002Z,10.01
2022-11-24T13:37:34.449Z,9.92
2022-11-24T13:40:22.460Z,9.83
2022-11-24T13:42:58.668Z,9.92
2022-11-24T13:45:41.452Z,9.92
2022-11-24T13:48:28.201Z,9.94
2022-11-24T13:50:54.695Z,10.06
2022-11-24T13:53:39.866Z,10.11
2022-11-24T13:56:12.579Z,10.22
2022-11-24T13:58:47.728Z,10.13
2022-11-24T14:01:22.428Z,10.12
2022-11-24T14:04:28.584Z,10.07
2022-11-24T14:06:48.461Z,10.00
2022-11-24T14:09:23.814Z,9.97
2022-11-24T14:12:03.623Z,9.85
2022-11-24T14:14:30.135Z,9.80
2022-11-24T14:17:28.060Z,9.64
2022-11-24T14:19:57.194Z,9.49
2022-11-24T14:22:43.334Z,9.41
2022-11-24T14:25:30.119Z,9.45
2022-11-24T14:27:57.166Z,9.36
2022-11-24T14:30:25.232Z,9.34
2022-11-24T14:32:56.822Z,9.41
2022-11-24T14:35:27.991Z,9.48
2022-11-24T14:37:54.571Z,9.42
2022-11-24T14:40:48.839Z,9.34
2022-11-24T14:43:27.665Z,9.27
2022-11-24T14:45:55.886Z,9.26
2022-11-24T14:48:28.257Z,9.19
2022-11-24T14:51:06.260Z,9.20
2022-11-24T14:53:34.361Z,9.16
2022-11-24T14:56:21.682Z,9.21
2022-11-24T14:58:48.495Z,9.20
2022-11-24T15:01:34.845Z,9.11
2022-11-24T15:07:23.928Z,8.64
2022-11-24T15:10:00.045Z,8.49
2022-11-24T15:12:41.913Z,8.35
2022-11-24T15:15:14.347Z,8.14
2022-11-24T15:17:56.698Z,8.06
2022-11-24T15:20:32.711Z,7.95
2022-11-24T15:23:21.527Z,7.83
2022-11-24T15:25:48.431Z,7.74
2022-11-24T15:28:14.907Z,7.58
2022-11-24T15:30:41.699Z,7.44
2022-11-24T15:33:16.766Z,7.34
2022-11-24T15:35:44.153Z,7.26
2022-11-24T15:38:10.850Z,7.16
2022-11-24T15:40:38.767Z,7.05
2022-11-24T15:43:31.301Z,6.92
2022-11-24T15:45:58.808Z,6.82
2022-11-24T15:48:25.490Z,6.76
2022-11-24T15:50:52.851Z,6.74
2022-11-24T15:53:32.747Z,6.82
2022-11-24T15:56:01.280Z,6.68
2022-11-24T15:58:27.893Z,6.72
2022-11-24T16:00:54.387Z,6.65
2022-11-24T16:06:19.102Z,6.47
2022-11-24T16:08:50.531Z,6.48
2022-11-24T16:11:23.263Z,6.46
2022-11-24T16:13:53.425Z,6.45
2022-11-24T16:16:21.461Z,6.40
2022-11-24T16:18:48.139Z,6.34
2022-11-24T16:21:14.719Z,6.30
2022-11-24T16:23:41.155Z,6.29
2022-11-24T16:26:07.758Z,6.23
2022-11-24T16:28:34.668Z,6.08
2022-11-24T16:31:01.383Z,6.01
2022-11-24T16:33:31.043Z,6.17
2022-11-24T16:35:57.490Z,6.29
2022-11-24T16:38:24.223Z,6.20
2022-11-24T16:40:56.095Z,6.13
2022-11-24T16:43:22.982Z,6.23
2022-11-24T16:46:24.864Z,6.15
2022-11-24T16:48:55.040Z,6.08
2022-11-24T16:51:23.370Z,6.16
2022-11-24T16:53:58.399Z,6.07
2022-11-24T16:56:25.156Z,5.93
2022-11-24T16:58:51.979Z,5.81
2022-11-24T17:01:18.489Z,5.89
2022-11-24T17:03:45.000Z,5.87
2022-11-24T17:06:15.663Z,5.79
2022-11-24T17:08:43.298Z,5.76
2022-11-24T17:11:15.155Z,5.78
2022-11-24T17:13:42.644Z,5.64
2022-11-24T17:16:12.123Z,5.58
2022-11-24T17:18:39.807Z,5.55
2022-11-24T17:21:09.978Z,5.56
2022-11-24T17:23:37.319Z,5.51
2022-11-24T17:26:06.902Z,5.58
2022-11-24T17:28:34.650Z,5.57
2022-11-24T17:31:08.886Z,5.53
2022-11-24T17:33:35.950Z,5.57
2022-11-24T17:36:04.792Z,5.55
2022-11-24T17:38:31.165Z,5.51
2022-11-24T17:40:58.164Z,5.52
2022-11-24T17:43:24.712Z,5.49
2022-11-24T17:46:00.990Z,5.45
2022-11-24T17:48:28.335Z,5.45
2022-11-24T17:51:03.228Z,5.48
2022-11-24T17:53:30.139Z,5.48
2022-11-24T17:56:00.780Z,5.52
2022-11-24T17:58:28.673Z,5.54
2022-11-24T18:00:55.567Z,5.53
2022-11-24T18:03:22.611Z,5.68
2022-11-24T18:05:50.098Z,5.76
2022-11-24T18:08:16.946Z,5.72
2022-11-24T18:10:43.484Z,5.74
2022-11-24T18:13:22.179Z,5.76
2022-11-24T18:16:00.289Z,5.74
2022-11-24T18:18:26.917Z,5.77
2022-11-24T18:21:01.259Z,5.84
2022-11-24T18:23:28.496Z,5.84
2022-11-24T18:26:00.061Z,5.86
2022-11-24T18:28:27.495Z,5.85
2022-11-24T18:31:00.809Z,5.96
2022-11-24T18:33:27.301Z,5.92
2022-11-24T18:36:01.417Z,5.99
2022-11-24T18:38:28.196Z,5.90
2022-11-24T18:40:59.260Z,5.89
2022-11-24T18:43:27.653Z,5.86
2022-11-24T18:45:54.398Z,5.83
2022-11-24T18:48:22.643Z,5.83
2022-11-24T18:50:53.603Z,5.76
2022-11-24T18:53:21.296Z,5.72
2022-11-24T18:56:05.011Z,5.63
2022-11-24T18:58:33.090Z,5.59
2022-11-24T19:01:08.270Z,5.62
2022-11-24T19:03:48.326Z,5.59
2022-11-24T19:06:21.386Z,5.63
2022-11-24T19:08:48.740Z,5.59
2022-11-24T19:11:33.865Z,5.53
2022-11-24T19:14:01.837Z,5.53
2022-11-24T19:16:28.972Z,5.52
2022-11-24T19:18:59.824Z,5.52
2022-11-24T19:21:27.385Z,5.50
2022-11-24T19:23:53.876Z,5.52
2022-11-24T19:26:20.356Z,5.56
2022-11-24T19:28:47.109Z,5.54
2022-11-24T19:31:15.236Z,5.56
2022-11-24T19:33:42.087Z,5.63
2022-11-24T19:36:17.527Z,5.60
2022-11-24T19:38:52.125Z,5.60
2022-11-24T19:41:19.605Z,5.58
2022-11-24T19:43:47.093Z,5.67
2022-11-24T19:46:16.132Z,5.61
2022-11-24T19:48:49.941Z,5.66
2022-11-24T19:51:18.793Z,5.66
2022-11-24T19:53:46.139Z,5.60
2022-11-24T19:56:14.736Z,5.63
2022-11-24T19:58:41.769Z,5.63
2022-11-24T20:01:40.375Z,5.83
2022-11-24T20:04:09.432Z,5.75
2022-11-24T20:06:44.442Z,5.70
2022-11-24T20:09:12.516Z,5.78
2022-11-24T20:11:39.715Z,5.80
2022-11-24T20:14:07.485Z,5.86
2022-11-24T20:16:34.691Z,5.79
2022-11-24T20:19:07.380Z,5.77
2022-11-24T20:21:35.419Z,5.79
2022-11-24T20:24:05.098Z,5.80
2022-11-24T20:26:34.602Z,5.71
2022-11-24T20:29:01.933Z,5.76
2022-11-24T20:31:34.250Z,5.78
2022-11-24T20:34:01.872Z,5.88
2022-11-24T20:36:30.012Z,5.81
2022-11-24T20:38:59.276Z,5.81
2022-11-24T20:41:29.026Z,5.76
2022-11-24T20:43:58.016Z,5.74
2022-11-24T20:46:26.379Z,5.68
2022-11-24T20:48:54.817Z,5.61
2022-11-24T20:51:24.642Z,5.61
2022-11-24T20:53:53.539Z,5.66
2022-11-24T20:56:23.214Z,5.57
2022-11-24T20:58:50.553Z,5.54
2022-11-24T21:01:22.905Z,5.54
2022-11-24T21:03:58.378Z,5.55
2022-11-24T21:06:31.460Z,5.56
2022-11-24T21:09:03.499Z,5.54
2022-11-24T21:11:31.643Z,5.55
2022-11-24T21:13:58.410Z,5.53
2022-11-24T21:16:36.540Z,5.48
2022-11-24T21:19:06.056Z,5.53
2022-11-24T21:21:35.193Z,5.45
2022-11-24T21:24:03.164Z,5.54
2022-11-24T21:26:29.807Z,5.52
2022-11-24T21:28:57.251Z,5.50
2022-11-24T21:31:23.896Z,5.37
2022-11-24T21:33:52.745Z,5.30
2022-11-24T21:36:22.346Z,5.27
2022-11-24T21:38:54.482Z,5.33
2022-11-24T21:41:22.407Z,5.26
2022-11-24T21:43:49.907Z,5.18
2022-11-24T21:46:16.807Z,5.18
2022-11-24T21:48:43.617Z,5.17
2022-11-24T21:51:18.102Z,5.11
2022-11-24T21:53:45.742Z,5.01
2022-11-24T21:56:17.697Z,5.16
2022-11-24T21:58:48.185Z,5.18
2022-11-24T22:01:16.143Z,5.02
2022-11-24T22:03:43.337Z,5.03
2022-11-24T22:06:10.170Z,5.03
2022-11-24T22:08:36.714Z,4.99
2022-11-24T22:11:05.560Z,5.01
2022-11-24T22:13:32.434Z,5.04
2022-11-24T22:16:00.963Z,5.01
2022-11-24T22:18:31.203Z,4.95
2022-11-24T22:20:57.555Z,5.06
2022-11-24T22:23:25.198Z,5.01
2022-11-24T22:25:51.709Z,5.00
2022-11-24T22:28:18.257Z,5.00
2022-11-24T22:30:44.882Z,4.95
2022-11-24T22:33:11.217Z,4.83
2022-11-24T22:35:37.773Z,4.91
2022-11-24T22:38:04.302Z,4.78
2022-11-24T22:40:30.830Z,4.81
2022-11-24T22:42:58.149Z,4.75
2022-11-24T22:45:24.669Z,4.74
2022-11-24T22:47:54.944Z,4.71
2022-11-24T22:50:21.535Z,4.76
2022-11-24T22:52:49.843Z,4.78
2022-11-24T22:55:16.418Z,4.77
2022-11-24T22:57:47.407Z,4.83
2022-11-24T23:00:16.232Z,5.00
2022-11-24T23:02:42.772Z,5.01
2022-11-24T23:05:09.671Z,5.00
2022-11-24T23:07:36.231Z,5.04
2022-11-24T23:10:03.054Z,5.18
2022-11-24T23:12:29.484Z,5.13
2022-11-24T23:14:55.856Z,5.26
2022-11-24T23:17:22.412Z,5.24
2022-11-24T23:19:48.850Z,5.24
2022-11-24T23:22:15.282Z,5.24
2022-11-24T23:24:41.807Z,5.23
2022-11-24T23:27:08.235Z,5.19
2022-11-24T23:29:34.869Z,5.24
2022-11-24T23:32:01.234Z,5.26
2022-11-24T23:34:27.833Z,5.28
2022-11-24T23:36:54.238Z,5.19
2022-11-24T23:39:20.773Z,5.15
2022-11-24T23:41:47.118Z,5.14
2022-11-24T23:44:13.603Z,5.13
2022-11-24T23:46:40.121Z,5.15
2022-11-24T23:49:06.570Z,5.10
2022-11-24T23:51:33.928Z,5.04
2022-11-24T23:54:01.017Z,5.11
2022-11-24T23:56:32.282Z,5.19
2022-11-24T23:59:01.241Z,5.13
